createdAt,value
2023-03-29T00:01:36.726Z,4.60
2023-03-29T00:04:06.450Z,6.32
2023-03-29T00:06:35.770Z,6.68
2023-03-29T00:09:06.905Z,7.10
2023-03-29T00:11:37.215Z,5.38
2023-03-29T00:14:06.467Z,5.22
2023-03-29T00:16:35.398Z,4.40
2023-03-29T00:19:04.733Z,5.38
2023-03-29T00:21:33.723Z,6.88
2023-03-29T00:24:02.700Z,4.72
2023-03-29T00:26:31.651Z,8.18
2023-03-29T00:29:02.278Z,4.78
2023-03-29T00:31:31.792Z,5.40
2023-03-29T00:34:00.743Z,5.90
2023-03-29T00:36:31.862Z,5.63
2023-03-29T00:39:00.871Z,4.97
2023-03-29T00:41:29.759Z,6.07
2023-03-29T00:44:02.529Z,5.40
2023-03-29T00:46:32.317Z,4.65
2023-03-29T00:49:07.757Z,4.82
2023-03-29T00:51:39.594Z,6.28
2023-03-29T00:54:15.097Z,4.63
2023-03-29T00:56:50.108Z,5.00
2023-03-29T00:59:23.881Z,5.67
2023-03-29T01:01:59.882Z,4.00
2023-03-29T01:04:34.014Z,5.30
2023-03-29T01:07:08.802Z,5.82
2023-03-29T01:09:41.103Z,5.93
2023-03-29T01:12:14.579Z,4.97
2023-03-29T01:14:49.952Z,5.15
2023-03-29T01:19:59.126Z,4.20
2023-03-29T01:22:39.638Z,5.45
2023-03-29T01:25:17.289Z,4.82
2023-03-29T01:27:54.691Z,5.07
2023-03-29T01:30:30.754Z,6.40
2023-03-29T01:33:04.024Z,6.45
2023-03-29T01:35:39.829Z,4.68
2023-03-29T01:38:14.643Z,4.65
2023-03-29T01:40:43.830Z,4.22
2023-03-29T01:43:23.719Z,5.32
2023-03-29T01:46:02.233Z,3.67
2023-03-29T01:48:34.569Z,4.40
2023-03-29T01:51:08.474Z,5.03
2023-03-29T01:53:42.177Z,3.88
2023-03-29T01:56:15.760Z,3.92
2023-03-29T01:58:49.261Z,4.63
2023-03-29T02:01:23.291Z,2.97
2023-03-29T02:03:56.633Z,5.00
2023-03-29T02:06:28.760Z,4.43
2023-03-29T02:08:58.315Z,3.35
2023-03-29T02:11:29.481Z,5.03
2023-03-29T02:14:00.014Z,4.20
2023-03-29T02:16:29.037Z,4.93
2023-03-29T02:18:58.737Z,4.13
2023-03-29T02:21:34.282Z,4.38
2023-03-29T02:24:08.771Z,3.10
2023-03-29T02:26:38.167Z,3.75
2023-03-29T02:29:10.058Z,5.22
2023-03-29T02:31:42.944Z,4.43
2023-03-29T02:34:20.641Z,3.47
2023-03-29T02:36:53.634Z,3.72
2023-03-29T02:39:23.241Z,3.22
2023-03-29T02:41:55.296Z,5.60
2023-03-29T02:44:29.439Z,4.07
2023-03-29T02:47:03.465Z,4.65
2023-03-29T02:49:32.737Z,4.78
2023-03-29T02:52:08.663Z,4.18
2023-03-29T02:54:43.669Z,4.22
2023-03-29T02:57:13.546Z,4.70
2023-03-29T02:59:45.133Z,6.00
2023-03-29T03:02:14.252Z,6.30
2023-03-29T03:04:44.916Z,4.30
2023-03-29T03:07:14.274Z,4.32
2023-03-29T03:09:43.201Z,3.83
2023-03-29T03:12:12.137Z,4.60
2023-03-29T03:14:41.191Z,4.38
2023-03-29T03:17:11.501Z,3.25
2023-03-29T03:19:40.643Z,3.80
2023-03-29T03:22:10.194Z,2.80
2023-03-29T03:24:39.171Z,3.33
2023-03-29T03:27:08.669Z,4.63
2023-03-29T03:29:38.740Z,3.70
2023-03-29T03:32:27.600Z,3.30
2023-03-29T03:35:19.393Z,4.28
2023-03-29T03:37:48.734Z,4.03
2023-03-29T03:40:20.922Z,3.05
2023-03-29T03:42:50.661Z,3.97
2023-03-29T03:45:20.502Z,2.50
2023-03-29T03:47:51.657Z,4.65
2023-03-29T03:50:26.428Z,3.33
2023-03-29T03:52:55.756Z,2.92
2023-03-29T03:55:24.726Z,3.80
2023-03-29T03:58:08.830Z,2.83
2023-03-29T04:00:37.865Z,6.10
2023-03-29T04:03:24.401Z,3.58
2023-03-29T04:05:54.456Z,2.88
2023-03-29T04:08:27.398Z,3.03
2023-03-29T04:11:19.309Z,3.30
2023-03-29T04:13:48.523Z,5.18
2023-03-29T04:16:43.775Z,4.05
2023-03-29T04:19:34.143Z,3.67
2023-03-29T04:22:03.169Z,3.08
2023-03-29T04:24:32.167Z,4.63
2023-03-29T04:27:24.116Z,3.72
2023-03-29T04:29:53.557Z,3.33
2023-03-29T04:32:54.332Z,2.35
2023-03-29T04:35:24.838Z,4.43
2023-03-29T04:37:54.800Z,3.33
2023-03-29T04:40:25.464Z,2.72
2023-03-29T04:45:45.754Z,2.97
2023-03-29T04:48:25.903Z,3.53
2023-03-29T04:50:56.949Z,5.18
2023-03-29T04:53:26.196Z,3.60
2023-03-29T04:55:55.864Z,3.42
2023-03-29T04:58:45.484Z,3.78
2023-03-29T05:01:15.151Z,2.40
2023-03-29T05:03:49.347Z,4.05
2023-03-29T05:06:27.160Z,5.45
2023-03-29T05:08:56.309Z,2.60
2023-03-29T05:11:32.908Z,4.35
2023-03-29T05:14:03.468Z,3.30
2023-03-29T05:16:35.960Z,3.40
2023-03-29T05:19:05.743Z,2.85
2023-03-29T05:21:39.833Z,4.03
2023-03-29T05:24:12.390Z,2.13
2023-03-29T05:26:56.619Z,3.83
2023-03-29T05:29:26.965Z,3.22
2023-03-29T05:32:08.310Z,2.88
2023-03-29T05:34:37.357Z,2.28
2023-03-29T05:37:08.722Z,2.22
2023-03-29T05:39:50.221Z,2.85
2023-03-29T05:42:23.774Z,3.28
2023-03-29T05:44:59.510Z,2.60
2023-03-29T05:47:28.819Z,3.00
2023-03-29T05:49:58.053Z,3.03
2023-03-29T05:52:32.386Z,2.83
2023-03-29T05:55:01.374Z,2.63
2023-03-29T05:57:30.811Z,2.88
2023-03-29T05:59:59.851Z,4.32
2023-03-29T06:02:29.763Z,1.85
2023-03-29T06:04:59.662Z,6.97
2023-03-29T06:07:42.564Z,3.60
2023-03-29T06:10:18.118Z,2.38
2023-03-29T06:12:51.765Z,2.90
2023-03-29T06:15:24.394Z,3.88
2023-03-29T06:17:58.426Z,2.93
2023-03-29T06:20:27.558Z,2.42
2023-03-29T06:23:04.803Z,3.00
2023-03-29T06:25:34.317Z,3.38
2023-03-29T06:28:04.273Z,1.48
2023-03-29T06:30:33.824Z,4.05
2023-03-29T06:33:03.167Z,2.75
2023-03-29T06:35:58.722Z,3.45
2023-03-29T06:38:32.198Z,1.92
2023-03-29T06:41:12.361Z,3.70
2023-03-29T06:44:10.213Z,2.92
2023-03-29T06:46:54.015Z,4.00
2023-03-29T06:49:23.314Z,1.95
2023-03-29T06:52:06.848Z,1.85
2023-03-29T06:54:37.525Z,3.63
2023-03-29T06:57:08.015Z,5.05
2023-03-29T06:59:37.250Z,2.53
2023-03-29T07:02:29.212Z,5.22
2023-03-29T07:05:18.968Z,3.03
2023-03-29T07:07:57.172Z,2.33
2023-03-29T07:10:39.520Z,3.00
2023-03-29T07:13:27.830Z,3.92
2023-03-29T07:15:59.944Z,3.72
2023-03-29T07:18:58.202Z,3.05
2023-03-29T07:21:46.090Z,2.20
2023-03-29T07:24:16.841Z,4.28
2023-03-29T07:27:00.124Z,3.15
2023-03-29T07:29:32.069Z,10.57
2023-03-29T07:32:01.260Z,4.13
2023-03-29T07:34:46.382Z,1.92
2023-03-29T07:37:26.069Z,1.92
2023-03-29T07:39:59.814Z,4.65
2023-03-29T07:42:47.716Z,2.08
2023-03-29T07:45:26.556Z,4.07
2023-03-29T07:48:14.805Z,3.95
2023-03-29T07:51:01.094Z,3.10
2023-03-29T07:56:08.141Z,4.78
2023-03-29T07:58:55.218Z,2.30
2023-03-29T08:01:24.986Z,4.22
2023-03-29T08:04:03.428Z,3.95
2023-03-29T08:07:01.934Z,1.52
2023-03-29T08:09:54.097Z,2.17
2023-03-29T08:12:32.563Z,4.05
2023-03-29T08:15:03.670Z,2.58
2023-03-29T08:17:37.554Z,2.72
2023-03-29T08:20:11.230Z,3.97
2023-03-29T08:22:42.752Z,2.03
2023-03-29T08:25:17.805Z,1.83
2023-03-29T08:27:51.112Z,2.90
2023-03-29T08:30:33.273Z,1.98
2023-03-29T08:33:03.525Z,3.67
2023-03-29T08:35:33.023Z,1.13
2023-03-29T08:38:14.355Z,5.18
2023-03-29T08:40:44.084Z,4.18
2023-03-29T08:43:27.159Z,1.63
2023-03-29T08:46:35.463Z,1.90
2023-03-29T08:49:32.213Z,3.47
2023-03-29T08:52:07.826Z,1.80
2023-03-29T08:54:44.917Z,1.40
2023-03-29T08:57:34.744Z,2.28
2023-03-29T09:00:18.110Z,2.55
2023-03-29T09:02:53.965Z,3.75
2023-03-29T09:05:28.151Z,2.17
2023-03-29T09:08:32.953Z,1.58
2023-03-29T09:11:18.265Z,2.03
2023-03-29T09:13:57.935Z,1.52
2023-03-29T09:16:34.830Z,1.83
2023-03-29T09:19:13.529Z,2.10
2023-03-29T09:21:49.807Z,2.40
2023-03-29T09:24:40.842Z,4.82
2023-03-29T09:27:22.094Z,2.15
2023-03-29T09:30:07.625Z,3.28
2023-03-29T09:32:58.577Z,1.90
2023-03-29T09:35:39.692Z,2.95
2023-03-29T09:38:13.242Z,3.40
2023-03-29T09:40:48.113Z,4.93
2023-03-29T09:43:31.936Z,1.77
2023-03-29T09:46:06.394Z,3.17
2023-03-29T09:48:39.437Z,2.72
2023-03-29T09:51:14.280Z,3.83
2023-03-29T09:53:43.593Z,3.05
2023-03-29T09:56:48.148Z,3.25
2023-03-29T09:59:22.363Z,1.83
2023-03-29T10:01:51.761Z,1.92
2023-03-29T10:04:22.430Z,2.90
2023-03-29T10:07:01.292Z,2.10
2023-03-29T10:09:32.704Z,3.03
2023-03-29T10:12:15.410Z,3.00
2023-03-29T10:14:48.065Z,2.53
2023-03-29T10:17:21.922Z,4.32
2023-03-29T10:19:52.575Z,3.60
2023-03-29T10:22:25.721Z,3.47
2023-03-29T10:24:58.286Z,6.80
2023-03-29T10:27:29.547Z,4.38
2023-03-29T10:30:01.120Z,3.58
2023-03-29T10:32:35.038Z,2.80
2023-03-29T10:35:11.041Z,4.70
2023-03-29T10:37:44.485Z,4.68
2023-03-29T10:40:23.417Z,5.47
2023-03-29T10:42:54.035Z,6.80
2023-03-29T10:45:27.423Z,5.70
2023-03-29T10:47:57.520Z,3.85
2023-03-29T10:50:28.317Z,5.90
2023-03-29T10:52:59.283Z,4.25
2023-03-29T10:55:36.348Z,5.75
2023-03-29T10:58:18.784Z,4.63
2023-03-29T11:00:53.584Z,9.00
2023-03-29T11:03:49.735Z,4.78
2023-03-29T11:06:26.773Z,5.72
2023-03-29T11:09:00.095Z,4.32
2023-03-29T11:11:48.571Z,6.18
2023-03-29T11:14:26.841Z,5.30
2023-03-29T11:17:09.281Z,5.30
2023-03-29T11:19:57.849Z,7.28
2023-03-29T11:22:47.200Z,6.30
2023-03-29T11:25:34.788Z,6.15
2023-03-29T11:28:11.700Z,5.35
2023-03-29T11:30:46.150Z,8.65
2023-03-29T11:33:38.957Z,5.82
2023-03-29T11:36:16.878Z,4.70
2023-03-29T11:38:59.635Z,5.72
2023-03-29T11:41:32.963Z,6.28
2023-03-29T11:44:07.084Z,3.95
2023-03-29T11:46:41.018Z,5.82
2023-03-29T11:49:16.142Z,7.20
2023-03-29T11:54:21.725Z,7.20
2023-03-29T11:56:58.650Z,7.50
2023-03-29T11:59:35.020Z,6.53
2023-03-29T12:02:11.744Z,7.07
2023-03-29T12:04:47.824Z,7.75
2023-03-29T12:07:21.240Z,10.75
2023-03-29T12:09:55.733Z,6.63
2023-03-29T12:12:30.796Z,5.97
2023-03-29T12:15:07.077Z,6.78
2023-03-29T12:17:43.267Z,4.72
2023-03-29T12:20:19.350Z,4.78
2023-03-29T12:22:52.545Z,3.78
2023-03-29T12:25:26.557Z,4.57
2023-03-29T12:28:15.561Z,6.07
2023-03-29T12:30:52.992Z,4.45
2023-03-29T12:33:34.093Z,3.10
2023-03-29T12:36:46.670Z,5.45
2023-03-29T12:39:42.263Z,4.28
2023-03-29T12:42:30.835Z,4.60
2023-03-29T12:45:22.193Z,5.18
2023-03-29T12:47:53.431Z,3.65
2023-03-29T12:50:29.093Z,3.97
2023-03-29T12:53:16.994Z,5.32
2023-03-29T12:55:55.153Z,2.78
2023-03-29T12:58:38.959Z,4.65
2023-03-29T13:01:25.168Z,3.47
2023-03-29T13:03:58.643Z,4.30
2023-03-29T13:06:33.907Z,4.65
2023-03-29T13:09:21.616Z,5.15
2023-03-29T13:11:54.745Z,7.65
2023-03-29T13:14:30.133Z,6.32
2023-03-29T13:17:17.874Z,4.93
2023-03-29T13:19:54.604Z,4.63
2023-03-29T13:25:10.902Z,3.70
2023-03-29T13:27:49.835Z,4.00
2023-03-29T13:30:33.029Z,3.67
2023-03-29T13:33:21.289Z,4.45
2023-03-29T13:36:01.524Z,3.88
2023-03-29T13:38:33.317Z,4.22
2023-03-29T13:41:04.475Z,4.18
2023-03-29T13:43:51.145Z,4.97
2023-03-29T13:46:24.859Z,3.83
2023-03-29T13:49:05.556Z,5.05
2023-03-29T13:51:39.996Z,5.60
2023-03-29T13:54:21.487Z,5.27
2023-03-29T13:57:13.968Z,4.32
2023-03-29T13:59:50.672Z,5.13
2023-03-29T14:02:39.316Z,4.90
2023-03-29T14:05:13.150Z,4.18
2023-03-29T14:07:47.381Z,5.53
2023-03-29T14:10:20.268Z,4.93
2023-03-29T14:12:50.084Z,4.63
2023-03-29T14:15:27.836Z,4.72
2023-03-29T14:18:00.791Z,5.60
2023-03-29T14:20:34.205Z,5.10
2023-03-29T14:23:13.261Z,5.53
2023-03-29T14:25:43.346Z,3.78
2023-03-29T14:28:21.970Z,4.07
2023-03-29T14:30:52.919Z,5.25
2023-03-29T14:33:27.549Z,6.38
2023-03-29T14:36:00.987Z,5.50
2023-03-29T14:38:31.552Z,8.18
2023-03-29T14:41:02.528Z,6.63
2023-03-29T14:43:33.096Z,6.22
2023-03-29T14:46:05.640Z,4.03
2023-03-29T14:48:35.910Z,4.90
2023-03-29T14:51:08.511Z,5.20
2023-03-29T14:53:39.169Z,6.47
2023-03-29T14:56:12.544Z,5.43
2023-03-29T14:58:46.881Z,6.65
2023-03-29T15:01:19.363Z,4.70
2023-03-29T15:03:54.953Z,3.95
2023-03-29T15:06:27.187Z,5.13
2023-03-29T15:09:06.140Z,4.97
2023-03-29T15:11:40.042Z,6.10
2023-03-29T15:14:18.256Z,5.07
2023-03-29T15:16:48.719Z,6.07
2023-03-29T15:19:20.626Z,6.35
2023-03-29T15:21:55.083Z,6.30
2023-03-29T15:24:34.013Z,4.70
2023-03-29T15:27:12.539Z,4.78
2023-03-29T15:29:43.971Z,11.60
2023-03-29T15:32:22.777Z,4.97
2023-03-29T15:35:00.572Z,5.65
2023-03-29T15:37:34.184Z,7.20
2023-03-29T15:40:09.993Z,6.00
2023-03-29T15:42:39.159Z,5.70
2023-03-29T15:45:15.832Z,5.78
2023-03-29T15:47:45.195Z,6.97
2023-03-29T15:50:15.621Z,5.88
2023-03-29T15:52:46.485Z,6.25
2023-03-29T15:55:15.912Z,5.85
2023-03-29T15:57:49.030Z,7.10
2023-03-29T16:00:24.338Z,4.95
2023-03-29T16:02:54.512Z,6.53
2023-03-29T16:05:23.547Z,7.35
2023-03-29T16:07:54.321Z,6.68
2023-03-29T16:10:23.452Z,5.38
2023-03-29T16:12:52.466Z,7.65
2023-03-29T16:15:24.187Z,6.25
2023-03-29T16:17:53.685Z,5.57
2023-03-29T16:20:22.890Z,6.43
2023-03-29T16:22:55.533Z,6.35
2023-03-29T16:25:25.278Z,7.35
2023-03-29T16:27:54.367Z,9.20
2023-03-29T16:30:25.241Z,10.98
2023-03-29T16:33:02.069Z,7.50
2023-03-29T16:35:33.463Z,8.25
2023-03-29T16:38:04.440Z,9.60
2023-03-29T16:40:34.917Z,9.07
2023-03-29T16:43:07.811Z,7.40
2023-03-29T16:45:44.340Z,8.45
2023-03-29T16:48:15.288Z,8.27
2023-03-29T16:50:44.422Z,8.13
2023-03-29T16:53:19.068Z,6.22
2023-03-29T16:55:49.369Z,8.48
2023-03-29T16:58:20.877Z,7.55
2023-03-29T17:00:52.260Z,6.75
2023-03-29T17:03:21.880Z,6.65
2023-03-29T17:05:51.202Z,7.93
2023-03-29T17:08:27.972Z,7.97
2023-03-29T17:10:58.151Z,8.60
2023-03-29T17:13:27.969Z,9.45
2023-03-29T17:15:58.874Z,10.73
2023-03-29T17:18:31.287Z,8.50
2023-03-29T17:21:02.081Z,10.32
2023-03-29T17:23:32.846Z,7.82
2023-03-29T17:26:02.371Z,8.20
2023-03-29T17:28:31.579Z,9.18
2023-03-29T17:31:04.162Z,8.73
2023-03-29T17:33:35.585Z,7.93
2023-03-29T17:36:06.445Z,7.10
2023-03-29T17:38:38.391Z,8.48
2023-03-29T17:41:08.540Z,8.65
2023-03-29T17:43:38.223Z,8.70
2023-03-29T17:46:07.938Z,9.32
2023-03-29T17:48:38.391Z,10.85
2023-03-29T17:51:08.396Z,10.25
2023-03-29T17:53:39.266Z,8.82
2023-03-29T17:56:10.080Z,15.48
2023-03-29T17:58:45.624Z,10.55
2023-03-29T18:01:19.959Z,11.60
2023-03-29T18:03:50.147Z,11.80
2023-03-29T18:06:21.110Z,10.77
2023-03-29T18:08:53.289Z,9.60
2023-03-29T18:11:25.032Z,9.45
2023-03-29T18:13:54.883Z,10.50
2023-03-29T18:16:24.254Z,8.55
2023-03-29T18:18:53.709Z,12.93
2023-03-29T18:21:22.840Z,10.40
2023-03-29T18:23:55.550Z,12.80
2023-03-29T18:26:26.188Z,11.75
2023-03-29T18:28:55.403Z,10.95
2023-03-29T18:31:24.539Z,9.90
2023-03-29T18:33:53.971Z,14.05
2023-03-29T18:36:25.503Z,9.60
2023-03-29T18:38:56.363Z,10.88
2023-03-29T18:41:26.148Z,10.77
2023-03-29T18:43:57.514Z,12.43
2023-03-29T18:46:30.608Z,10.52
2023-03-29T18:49:02.893Z,13.18
2023-03-29T18:51:33.178Z,10.32
2023-03-29T18:54:04.558Z,12.20
2023-03-29T18:56:33.703Z,10.85
2023-03-29T18:59:05.379Z,11.48
2023-03-29T19:01:35.899Z,10.07
2023-03-29T19:04:05.295Z,10.82
2023-03-29T19:06:34.617Z,12.07
2023-03-29T19:09:05.453Z,11.38
2023-03-29T19:11:36.212Z,9.85
2023-03-29T19:14:15.512Z,9.38
2023-03-29T19:16:44.644Z,11.30
2023-03-29T19:19:14.224Z,13.50
2023-03-29T19:21:48.894Z,10.57
2023-03-29T19:24:19.743Z,13.52
2023-03-29T19:26:50.156Z,9.27
2023-03-29T19:29:19.709Z,10.48
2023-03-29T19:31:48.977Z,9.52
2023-03-29T19:34:20.864Z,9.63
2023-03-29T19:36:51.979Z,10.88
2023-03-29T19:39:25.265Z,10.45
2023-03-29T19:41:55.216Z,9.90
2023-03-29T19:44:24.806Z,10.93
2023-03-29T19:46:56.523Z,13.05
2023-03-29T19:49:25.799Z,10.60
2023-03-29T19:51:55.690Z,10.52
2023-03-29T19:54:26.642Z,10.55
2023-03-29T19:56:57.499Z,15.13
2023-03-29T19:59:27.732Z,13.27
2023-03-29T20:02:18.052Z,10.50
2023-03-29T20:04:51.306Z,9.38
2023-03-29T20:07:20.812Z,12.25
2023-03-29T20:09:51.491Z,11.63
2023-03-29T20:12:20.839Z,10.65
2023-03-29T20:14:49.917Z,10.68
2023-03-29T20:17:18.920Z,12.27
2023-03-29T20:19:48.016Z,13.05
2023-03-29T20:22:17.042Z,10.82
2023-03-29T20:24:46.423Z,12.18
2023-03-29T20:27:17.096Z,12.27
2023-03-29T20:29:46.730Z,13.13
2023-03-29T20:32:15.948Z,11.13
2023-03-29T20:34:45.198Z,10.65
2023-03-29T20:37:14.770Z,11.38
2023-03-29T20:39:43.852Z,12.50
2023-03-29T20:42:14.287Z,13.07
2023-03-29T20:44:50.734Z,12.75
2023-03-29T20:47:27.701Z,13.93
2023-03-29T20:49:56.926Z,16.20
2023-03-29T20:52:31.011Z,19.83
2023-03-29T20:55:00.693Z,19.65
2023-03-29T20:57:30.572Z,18.80
2023-03-29T21:00:12.053Z,15.70
2023-03-29T21:02:41.430Z,15.52
2023-03-29T21:05:11.593Z,19.15
2023-03-29T21:07:40.565Z,17.85
2023-03-29T21:10:10.298Z,17.83
2023-03-29T21:12:40.250Z,15.10
2023-03-29T21:15:13.620Z,17.70
2023-03-29T21:17:43.117Z,17.88
2023-03-29T21:20:14.755Z,20.25
2023-03-29T21:22:44.463Z,18.48
2023-03-29T21:25:16.041Z,14.70
2023-03-29T21:27:45.529Z,20.30
2023-03-29T21:30:16.596Z,17.77
2023-03-29T21:32:45.752Z,17.38
2023-03-29T21:35:15.273Z,18.55
2023-03-29T21:37:47.024Z,20.33
2023-03-29T21:40:16.179Z,16.63
2023-03-29T21:42:45.417Z,14.80
2023-03-29T21:45:15.981Z,18.38
2023-03-29T21:47:45.097Z,17.67
2023-03-29T21:50:14.294Z,16.77
2023-03-29T21:52:43.526Z,18.50
2023-03-29T21:55:13.638Z,18.40
2023-03-29T21:57:43.233Z,18.95
2023-03-29T22:00:17.560Z,16.30
2023-03-29T22:02:46.782Z,21.30
2023-03-29T22:05:16.348Z,16.17
2023-03-29T22:07:45.479Z,21.05
2023-03-29T22:10:15.773Z,22.73
2023-03-29T22:12:45.819Z,20.20
2023-03-29T22:15:17.246Z,21.67
2023-03-29T22:17:48.322Z,19.95
2023-03-29T22:20:18.686Z,20.25
2023-03-29T22:22:49.922Z,25.98
2023-03-29T22:25:19.360Z,17.88
2023-03-29T22:27:49.401Z,19.65
2023-03-29T22:30:20.379Z,21.65
2023-03-29T22:32:50.663Z,22.77
2023-03-29T22:35:19.794Z,20.42
2023-03-29T22:37:48.860Z,23.88
2023-03-29T22:40:18.159Z,21.77
2023-03-29T22:42:47.169Z,21.08
2023-03-29T22:45:16.413Z,23.17
2023-03-29T22:47:46.795Z,21.58
2023-03-29T22:50:15.866Z,19.90
2023-03-29T22:52:45.271Z,21.10
2023-03-29T22:55:14.251Z,21.65
2023-03-29T22:57:43.828Z,23.17
2023-03-29T23:00:13.922Z,23.80
2023-03-29T23:02:42.956Z,23.05
2023-03-29T23:05:13.726Z,19.27
2023-03-29T23:07:42.603Z,19.83
2023-03-29T23:10:13.092Z,18.00
2023-03-29T23:12:43.080Z,21.30
2023-03-29T23:15:13.342Z,21.85
2023-03-29T23:17:42.305Z,20.20
2023-03-29T23:20:14.069Z,19.10
2023-03-29T23:22:43.233Z,19.23
2023-03-29T23:25:12.166Z,20.58
2023-03-29T23:27:42.481Z,16.02
2023-03-29T23:30:11.988Z,20.80
2023-03-29T23:32:41.150Z,20.10
2023-03-29T23:35:10.726Z,18.40
2023-03-29T23:37:41.416Z,18.88
2023-03-29T23:40:12.021Z,19.48
2023-03-29T23:42:42.360Z,20.13
2023-03-29T23:45:14.380Z,15.05
2023-03-29T23:47:44.217Z,19.75
2023-03-29T23:50:15.601Z,17.88
2023-03-29T23:52:46.757Z,16.38
2023-03-29T23:55:16.640Z,19.83
2023-03-29T23:57:45.658Z,18.98
